Idabel, OK (74745)

10:24 PM CST on December 17, 2014 (GMT -0600)
Fuller Farms | Change Station
CLOSE
Current Station
Personal Weather Station
Location: Haworth, OK
Elevation: 433 ft
Nearby Weather Stations

Elev 433 ft 33.82 °N, 94.71 °W | Updated 10 seconds ago

Rain
Rain
37.3 °F
Feels Like 37 °F
N
2.0
Wind Variable Wind from ENE
Gusts 5.0 mph

Today
High -- | Low -- °F
--% Chance of Precip.
Yesterday
High -- | Low -- °F
Precip. -- in
7:17 AM 5:12 PM
Waning Crescent, 17% visible
Pressure 30.24 in
Visibility 5.0 miles
Clouds Mostly Cloudy 800 ft
Overcast 1500 ft
Windchill 37 °F
Dew Point 36 °F
Humidity 96%
Rainfall 0.32 in
Snow Depth Not available.
UV 0 out of 12
Pollen 3.90 out of 12
Air Quality Not available.
Flu Activity Not available.
METAR K4O4 180415Z AUTO 06006KT 5SM BKN008 OVC015 02/01 A3024 RMK AO2

More Conditions Fewer Conditions

Pressure 30.24 in
Visibility 5.0 miles
Clouds Mostly Cloudy 800 ft
Overcast 1500 ft
Windchill 37 °F
Dew Point 36 °F
Humidity 96%
Rainfall 0.32 in
Snow Depth Not available.
UV 0 out of 12
Pollen 3.90 out of 12
Air Quality Not available.
Flu Activity Not available.
METAR K4O4 180415Z AUTO 06006KT 5SM BKN008 OVC015 02/01 A3024 RMK AO2

More Conditions Fewer Conditions

Nowcast | as of 8:40 PM CST on December 17, 2014

Look for areas of light to moderate rain showers to continue shifting east northeast across much of East Texas...southeast Oklahoma...southwest Arkansas...and eventually into extreme northwest Louisiana...through late evening. Rainfall amounts will range from a few hundredths to around a tenth of an inch over the next couple of hours...with isolated amounts up to a quarter of an inch possible. This rainfall will eventually move into the Shreveport...Bossier City areas between 930 and 10 PM.

×

10-Day Weather Forecast

Almanac

Astronomy

Dec. 17, 2014 Rise Set
Actual Time
Civil Twilight
Nautical Twilight
Astronomical Twilight
Moon
Length of Visible Light
Length of Day
Tomorrow will be .
, % of the Moon is Illuminated

Today's Extremes

State Highs State Lows

Community

WunderPhotos

Upload Photos

1,778,880 photos uploaded!

WunderBlogs® & News

Nearby

Air Quality

  Air Quality AQ Index Pollutant
Not available.

Snow Depth

Station Depth Elevation

Earthquake Activity

City Distance Mag. Time & Date
Minimum magnitude displayed is 2.5.

Coastal Water Temperatures

Place Temperature

Nearby Weather Stations